Wilkes Barre, Pennsylvania
Current Conditions -  °F | °C
As of 8:54 PM on Saturday 20 Dec 2014 (Local Time) from KAVP Reporting Station
Overcast Overcast  
Wind Chill: 30°   Ceiling: 2300
Heat Index: 30°   Visibility: 10mi
Dew Point: 20°   Wind: 3mph
Humidity: 66%   Direction: 340°NNW
Pressure: 30.24"   Gusts: NA
Location:  41.2036°N, 75.8843°W
Report Text: KAVP 210154Z AUTO 34003KT 10SM OVC023 M01/M07 A3024 RMK AO2 SLP250 T10111067
Loading
Personal Weather Stations






























Interactive Weather Map New forecast layout! Learn more

10-Day Weather Forecast

Advertisements
Track Severe Weather on mobile